Main page
METAR-TAF:

METAR-TAF

Airports :

Diori Hamani International Airport

Niamey, Niger

latitude: 13-29N, longitude: 002-10E, elevation: 223 m

Current weather observation

The report was made 25 minutes ago, at 01:00 UTC
Wind 3 kt from the South/Southeast
Temperature 27°C
Humidity 89%
Pressure 1011 hPa
Visibility 10 km or more
no clouds below 1500 m and no cumulonimbus

METAR: DRRN 100100Z 16003KT CAVOK 27/25 Q1011 NOSIG

Time: 02:25 (01:25 UTC)

Forecast

The report was made 2 hours and 25 minutes ago, at 23:00 UTC
Forecast valid from 10 at 00 UTC to 11 at 06 UTC
Wind 8 kt from the South
Visibility: 8000 m
Few clouds at a height of 3000 ft
Probability 30% :
Temporary
from 10 at 01 UTC to 10 at 05 UTC
Wind 25 kt from variable directions
Visibility: 3000 m
Few clouds at a height of 4000 ft, Cumulonimbus.
thunderstorm, rain showers

TAF: DRRN 092300Z 1000/1106 18008KT 8000 FEW030 PROB30 TEMPO 1001/1005 VRB25KT 3000 TS SHRA FEW040CB

Weather observations and forecasts of more than 4000 airports (METAR and TAF reports).

The available stations are represented by yellow and red dots on the map.

Hover mouse over dot to see the name of the station.

Then click to see weather observations and forecasts.

To change the map : click on the green buttons with a black cross to zoom in, on the green button with a dash to zoom out, or on the green arrows for adjacent maps.


METAR-TAF: